METAR Data
IDs: Format: Raw Decoded Include TAF

Data at: 2126 UTC 10 May 2021

KCPW 102115Z AUTO 22027G42KT 10SM SCT033 SCT040 BKN065 01/M06 A3014 RMK AO2
KCPW 102055Z AUTO 23028G39KT 10SM SCT060 SCT085 01/M06 A3015 RMK AO2
KCPW 102035Z AUTO 23026G50KT 10SM SCT033 BKN050 OVC080 01/M07 A3015 RMK AO2
KCPW 102015Z AUTO 23025G47KT 10SM SCT027 BKN034 OVC050 01/M07 A3015 RMK AO2
KCPW 101955Z AUTO 25025G42KT 10SM SCT025 BKN041 OVC047 00/M07 A3016 RMK AO2
KCPW 101935Z AUTO 24024G43KT 7SM SCT010 BKN030 OVC042 00/M06 A3016 RMK AO2
KCPW 101915Z AUTO 23026G41KT 200V260 10SM SCT021 BKN034 OVC044 00/M07 A3016 RMK AO2
KCPW 101855Z AUTO 25025G42KT 210V270 7SM SCT024 BKN033 OVC050 00/M08 A3016 RMK AO2
KCPW 101835Z AUTO 24027G47KT 10SM SCT040 BKN050 BKN070 01/M08 A3015 RMK AO2
KCPW 101815Z AUTO 24031G40KT 10SM SCT035 SCT045 OVC050 01/M10 A3014 RMK AO2
KCPW 101755Z AUTO 23028G42KT 10SM SCT036 BKN047 OVC050 00/M09 A3015 RMK AO2 LTG DSNT NW
KCPW 101735Z AUTO 24028G41KT 10SM SCT038 BKN047 OVC090 01/M08 A3015 RMK AO2
KCPW 101715Z AUTO 24018G39KT 10SM SCT036 BKN045 OVC080 00/M08 A3018 RMK AO2
KCPW 101655Z AUTO 21023G33KT 10SM SCT036 BKN044 OVC080 01/M07 A3016 RMK AO2
KCPW 101635Z AUTO 22020G31KT 10SM SCT039 BKN047 OVC065 00/M07 A3017 RMK AO2
KCPW 101615Z AUTO 21018G34KT 10SM BKN050 BKN070 BKN085 00/M07 A3017 RMK AO2
KCPW 101555Z AUTO 23020G29KT 10SM BKN050 00/M06 A3018 RMK AO2
KCPW 101535Z AUTO 22016G24KT 10SM BKN050 00/M06 A3018 RMK AO2
KCPW 101515Z AUTO 22016G26KT 10SM BKN055 BKN070 00/M07 A3018 RMK AO2
KCPW 101455Z AUTO 22016G26KT 10SM BKN055 OVC070 00/M08 A3018 RMK AO2
KCPW 101435Z AUTO 22016G27KT 10SM SCT044 OVC055 00/M08 A3018 RMK AO2
KCPW 101415Z AUTO 22016G21KT 10SM BKN044 OVC050 M01/M09 A3019 RMK AO2
KCPW 101355Z AUTO 21012G19KT 10SM SCT039 BKN050 OVC060 M01/M10 A3019 RMK AO2
KCPW 101335Z AUTO 22010G16KT 10SM OVC050 M01/M09 A3020 RMK AO2
KCPW 101315Z AUTO 22009G17KT 10SM OVC055 M01/M10 A3020 RMK AO2
KCPW 101255Z AUTO 21009KT 10SM OVC055 M01/M10 A3019 RMK AO2
KCPW 101235Z AUTO 26009G15KT 10SM SCT037 SCT046 OVC060 M02/M10 A3019 RMK AO2
KCPW 101215Z AUTO 27005G20KT 10SM SCT037 SCT045 OVC055 M02/M09 A3019 RMK AO2
KCPW 101155Z AUTO 24010G16KT 200V280 10SM SCT039 SCT046 OVC055 M02/M09 A3018 RMK AO2
KCPW 101135Z AUTO 25010G23KT 10SM SCT038 BKN050 OVC070 M02/M08 A3019 RMK AO2
KCPW 101115Z AUTO 23013G18KT 10SM BKN050 BKN060 OVC070 M02/M08 A3020 RMK AO2
KCPW 101055Z AUTO 24009G17KT 10SM SCT036 SCT050 OVC065 M02/M08 A3020 RMK AO2
KCPW 101035Z AUTO 26007KT 220V280 10SM SCT027 BKN036 OVC065 M02/M08 A3021 RMK AO2
KCPW 101015Z AUTO 28006G15KT 10SM SCT018 BKN035 OVC042 M02/M07 A3022 RMK AO2
KCPW 100955Z AUTO 28007KT 240V310 10SM BKN033 OVC040 M02/M07 A3022 RMK AO2
KCPW 100935Z AUTO 27004KT 10SM BKN032 OVC039 M02/M07 A3021 RMK AO2
KCPW 100915Z AUTO 26007KT 10SM SCT029 BKN035 OVC042 M02/M07 A3021 RMK AO2
KCPW 100855Z AUTO 25008G16KT 10SM SCT031 OVC039 M02/M08 A3020 RMK AO2
KCPW 100835Z AUTO 25012G19KT 10SM SCT022 BKN034 OVC043 M01/M09 A3020 RMK AO2
KCPW 100815Z AUTO 25017G31KT 10SM SCT020 BKN030 OVC038 M01/M10 A3020 RMK AO2
KCPW 100755Z AUTO 23015G32KT 10SM SCT024 BKN035 OVC042 M01/M09 A3019 RMK AO2
KCPW 100735Z AUTO 21012G18KT 10SM SCT025 BKN036 OVC044 M01/M09 A3020 RMK AO2
KCPW 100715Z AUTO 23012G26KT 10SM SCT036 BKN045 OVC050 M01/M08 A3022 RMK AO2
KCPW 100655Z AUTO 25004KT 10SM SCT033 BKN047 OVC060 M02/M08 A3023 RMK AO2 LTG DSNT E
KCPW 100635Z AUTO 26011G16KT 10SM SCT034 BKN044 OVC050 M01/M09 A3023 RMK AO2
KCPW 100615Z AUTO 26007KT 10SM VCTS SCT040 BKN048 OVC050 M01/M11 A3023 RMK AO2
KCPW 100555Z AUTO 25011G20KT 210V280 10SM SCT040 BKN048 OVC065 M01/M11 A3021 RMK AO2
KCPW 100535Z AUTO 22012G19KT 10SM SCT034 BKN060 OVC065 M01/M11 A3023 RMK AO2 LTG DSNT SE
KCPW 100515Z AUTO 24011G17KT 10SM SCT039 BKN047 OVC060 00/M11 A3023 RMK AO2 LTG DSNT E
KCPW 100455Z AUTO 23009G15KT 10SM SCT042 OVC050 00/M12 A3023 RMK AO2
KCPW 100435Z AUTO 21007KT 10SM SCT044 OVC050 00/M12 A3023 RMK AO2
KCPW 100415Z AUTO 23007KT 10SM SCT044 SCT050 OVC060 00/M11 A3023 RMK AO2
KCPW 100355Z AUTO 22007KT 10SM OVC060 00/M11 A3023 RMK AO2
KCPW 100335Z AUTO 22007KT 10SM BKN060 OVC070 M01/M11 A3023 RMK AO2
KCPW 100315Z AUTO 24006KT 10SM SCT060 SCT070 BKN090 M01/M11 A3023 RMK AO2
KCPW 100255Z AUTO 26006KT 10SM SCT060 SCT070 BKN090 00/M11 A3023 RMK AO2
KCPW 100235Z AUTO 27010G20KT 240V300 10SM SCT047 BKN060 OVC090 00/M11 A3023 RMK AO2
KCPW 100215Z AUTO 27007G16KT 10SM SCT060 BKN070 BKN100 00/M12 A3023 RMK AO2
KCPW 100155Z AUTO 25010G18KT 10SM SCT070 BKN100 00/M12 A3022 RMK AO2 LTG DSNT E
KCPW 100135Z AUTO 26011G17KT 10SM SCT080 BKN100 00/M12 A3022 RMK AO2
KCPW 100115Z AUTO 24010G15KT 10SM SCT060 SCT070 BKN110 00/M12 A3021 RMK AO2
KCPW 100055Z AUTO 26013G22KT 220V290 10SM SCT070 SCT095 BKN110 00/M12 A3021 RMK AO2
KCPW 100035Z AUTO 26019G30KT 10SM SCT070 SCT080 00/M12 A3020 RMK AO2
KCPW 100015Z AUTO 25015G23KT 10SM SCT055 BKN070 BKN080 00/M12 A3021 RMK AO2
KCPW 092355Z AUTO 25016G26KT 10SM SCT049 BKN070 OVC085 01/M12 A3020 RMK AO2
KCPW 092335Z AUTO 25018G30KT 10SM SCT070 BKN080 BKN110 01/M12 A3020 RMK AO2
KCPW 092315Z AUTO 24014G32KT 10SM BKN070 BKN090 BKN100 01/M12 A3019 RMK AO2
KCPW 092255Z AUTO 23016G29KT 10SM SCT049 BKN070 OVC090 01/M12 A3019 RMK AO2
KCPW 092235Z AUTO 24019G30KT 10SM SCT050 OVC060 00/M12 A3020 RMK AO2
KCPW 092215Z AUTO 25014G27KT 10SM SCT050 OVC070 00/M12 A3020 RMK AO2
KCPW 092155Z AUTO 26013G21KT 10SM SCT050 OVC070 01/M12 A3020 RMK AO2
KCPW 092135Z AUTO 27018G32KT 10SM SCT048 BKN070 OVC080 01/M12 A3020 RMK AO2
KCPW 092115Z AUTO 23019G37KT 10SM SCT046 BKN080 OVC085 01/M13 A3019 RMK AO2
KCPW 092055Z AUTO 22023G33KT 10SM BKN080 BKN090 BKN110 01/M12 A3018 RMK AO2
KCPW 092035Z AUTO 23021G35KT 10SM SCT060 BKN070 BKN090 01/M13 A3019 RMK AO2
KCPW 092015Z AUTO 24023G35KT 10SM BKN060 BKN070 OVC080 01/M13 A3019 RMK AO2
KCPW 091955Z AUTO 22020G31KT 10SM BKN070 BKN095 01/M12 A3019 RMK AO2 LTG DSNT SE
KCPW 091935Z AUTO 22024G33KT 10SM BKN065 01/M12 A3019 RMK AO2
KCPW 091915Z AUTO 23021G33KT 10SM SCT050 BKN070 OVC080 01/M12 A3020 RMK AO2 LTG DSNT SE
KCPW 091855Z AUTO 25014G32KT 10SM SCT070 BKN080 01/M12 A3022 RMK AO2
KCPW 091835Z AUTO 21021G33KT 10SM SCT070 SCT120 02/M12 A3021 RMK AO2
KCPW 091815Z AUTO 21024G29KT 10SM BKN120 01/M13 A3021 RMK AO2
KCPW 091755Z AUTO 21027G34KT 10SM BKN120 01/M14 A3021 RMK AO2
KCPW 091735Z AUTO 21021G29KT 10SM SCT120 01/M11 A3021 RMK AO2
KCPW 091715Z AUTO 21018G26KT 10SM SCT120 01/M10 A3022 RMK AO2
KCPW 091655Z AUTO 21019G26KT 10SM SCT120 01/M11 A3021 RMK AO2
KCPW 091635Z AUTO 21018G24KT 10SM CLR 00/M11 A3022 RMK AO2
KCPW 091615Z AUTO 22015G26KT 10SM CLR 00/M13 A3022 RMK AO2
KCPW 091555Z AUTO 21018G25KT 10SM CLR 00/M12 A3021 RMK AO2
KCPW 091535Z AUTO 21012G21KT 10SM CLR 00/M11 A3022 RMK AO2
KCPW 091515Z AUTO 22016G21KT 10SM CLR 00/M09 A3022 RMK AO2
KCPW 091455Z AUTO 22013G20KT 10SM CLR M01/M08 A3022 RMK AO2
KCPW 091435Z AUTO 22013G21KT 10SM CLR M01/M07 A3021 RMK AO2
KCPW 091415Z AUTO 22013G19KT 10SM CLR M01/M07 A3021 RMK AO2
KCPW 091355Z AUTO 22012G18KT 10SM CLR M01/M08 A3021 RMK AO2
KCPW 091335Z AUTO 20011G17KT 10SM CLR M01/M08 A3021 RMK AO2
KCPW 091315Z AUTO 21010G16KT 10SM CLR M02/M08 A3021 RMK AO2
KCPW 091255Z AUTO 22012G19KT 10SM CLR M02/M08 A3021 RMK AO2
KCPW 091235Z AUTO 22012G18KT 10SM SCT047 SCT050 M02/M08 A3021 RMK AO2
KCPW 091215Z AUTO 22011G17KT 10SM SCT050 M02/M07 A3020 RMK AO2
KCPW 091155Z AUTO 23012G16KT 10SM SCT050 M02/M08 A3020 RMK AO2
KCPW 091135Z AUTO 23010G16KT 10SM CLR M02/M08 A3020 RMK AO2
KCPW 091115Z AUTO 21011G19KT 10SM CLR M02/M08 A3020 RMK AO2
KCPW 091055Z AUTO 22010KT 10SM CLR M02/M08 A3020 RMK AO2
KCPW 091035Z AUTO 24008KT 10SM CLR M02/M09 A3021 RMK AO2
KCPW 091015Z AUTO 23009KT 10SM CLR M02/M09 A3021 RMK AO2
KCPW 090955Z AUTO 25008KT 10SM CLR M01/M10 A3022 RMK AO2
KCPW 090935Z AUTO 25009KT 10SM CLR M01/M11 A3022 RMK AO2